createdAt,value
2018-04-28T00:02:05.512Z,84.00
2018-04-28T00:07:08.779Z,84.20
2018-04-28T00:12:12.517Z,85.50
2018-04-28T00:17:15.785Z,85.50
2018-04-28T00:22:37.708Z,84.60
2018-04-28T00:27:47.464Z,84.40
2018-04-28T00:32:50.718Z,85.20
2018-04-28T00:37:54.024Z,86.30
2018-04-28T00:42:57.680Z,86.90
2018-04-28T00:48:00.939Z,87.00
2018-04-28T00:53:04.642Z,87.30
2018-04-28T00:58:19.965Z,86.50
2018-04-28T01:08:51.438Z,87.20
2018-04-28T01:19:38.900Z,88.10
2018-04-28T01:24:59.095Z,87.10
2018-04-28T01:35:43.356Z,86.90
2018-04-28T01:40:46.605Z,86.90
2018-04-28T01:51:39.946Z,87.50
2018-04-28T01:56:44.870Z,87.50
2018-04-28T02:01:48.483Z,88.30
2018-04-28T02:07:07.878Z,88.70
2018-04-28T02:18:08.053Z,88.20
2018-04-28T02:28:47.462Z,87.80
2018-04-28T02:33:50.712Z,88.80
2018-04-28T02:39:09.757Z,89.40
2018-04-28T02:44:19.964Z,89.40
2018-04-28T02:49:23.889Z,89.30
2018-04-28T02:54:36.834Z,89.80
2018-04-28T02:59:56.148Z,90.60
2018-04-28T03:05:00.110Z,90.60
2018-04-28T03:10:04.266Z,90.80
2018-04-28T03:15:07.908Z,91.40
2018-04-28T03:20:14.844Z,91.40
2018-04-28T03:25:23.649Z,92.20
2018-04-28T03:30:34.748Z,92.80
2018-04-28T03:41:15.800Z,90.90
2018-04-28T03:46:22.942Z,91.80
2018-04-28T03:51:27.227Z,92.30
2018-04-28T03:56:40.460Z,92.00
2018-04-28T04:01:55.717Z,91.50
2018-04-28T04:07:03.865Z,91.60
2018-04-28T04:12:14.980Z,92.00
2018-04-28T04:22:55.538Z,92.20
2018-04-28T04:28:09.466Z,91.40
2018-04-28T04:33:16.332Z,90.30
2018-04-28T04:38:24.286Z,90.50
2018-04-28T04:49:13.405Z,90.90
2018-04-28T04:54:32.614Z,90.60
2018-04-28T05:11:32.842Z,88.20
2018-04-28T05:16:45.852Z,87.90
2018-04-28T05:28:19.126Z,84.40
2018-04-28T05:33:34.550Z,84.40
2018-04-28T05:38:58.713Z,84.40
2018-04-28T05:50:12.166Z,87.10
2018-04-28T05:55:30.352Z,87.40
2018-04-28T06:00:45.302Z,84.70
2018-04-28T06:06:13.442Z,83.70
2018-04-28T06:17:19.086Z,80.50
2018-04-28T06:22:22.313Z,80.10
2018-04-28T06:27:25.592Z,79.40
2018-04-28T06:32:28.877Z,78.70
2018-04-28T06:37:32.154Z,78.30
2018-04-28T06:42:35.800Z,78.40
2018-04-28T06:47:39.056Z,78.30
2018-04-28T06:52:42.294Z,78.20
2018-04-28T06:57:45.510Z,78.40
2018-04-28T07:02:48.826Z,77.20
2018-04-28T07:07:52.088Z,77.60
2018-04-28T07:12:57.006Z,77.00
2018-04-28T07:18:00.266Z,76.20
2018-04-28T07:23:03.541Z,76.10
2018-04-28T07:28:06.779Z,74.50
2018-04-28T07:33:10.058Z,73.60
2018-04-28T07:38:13.316Z,76.70
2018-04-28T07:43:16.571Z,78.90
2018-04-28T07:48:19.810Z,78.50
2018-04-28T07:53:23.087Z,76.70
2018-04-28T07:58:26.392Z,78.20
2018-04-28T08:03:29.627Z,77.40
2018-04-28T08:08:32.876Z,76.10
2018-04-28T08:13:36.114Z,75.30
2018-04-28T08:18:39.386Z,75.00
2018-04-28T08:23:42.655Z,74.90
2018-04-28T08:28:46.058Z,74.70
2018-04-28T08:33:49.340Z,74.70
2018-04-28T08:38:53.004Z,75.40
2018-04-28T08:43:56.370Z,75.40
2018-04-28T08:48:59.986Z,74.00
2018-04-28T08:54:03.714Z,72.80
2018-04-28T08:59:07.898Z,71.60
2018-04-28T09:04:11.153Z,71.60
2018-04-28T09:09:18.475Z,70.50
2018-04-28T09:14:22.379Z,70.40
2018-04-28T09:19:25.667Z,70.80
2018-04-28T09:24:28.967Z,70.30
2018-04-28T09:29:32.193Z,67.90
2018-04-28T09:34:35.790Z,67.40
2018-04-28T09:39:39.095Z,67.40
2018-04-28T09:44:42.315Z,65.20
2018-04-28T09:49:45.930Z,66.50
2018-04-28T09:54:49.577Z,64.30
2018-04-28T09:59:53.057Z,64.30
2018-04-28T10:04:56.351Z,63.40
2018-04-28T10:10:00.273Z,63.50
2018-04-28T10:15:03.523Z,63.50
2018-04-28T10:20:06.974Z,62.60
2018-04-28T10:25:10.748Z,62.60
2018-04-28T10:30:13.970Z,62.40
2018-04-28T10:35:17.321Z,60.80
2018-04-28T10:40:20.563Z,61.80
2018-04-28T10:45:23.798Z,61.10
2018-04-28T10:50:27.371Z,61.90
2018-04-28T10:55:30.867Z,61.70
2018-04-28T11:00:34.588Z,61.00
2018-04-28T11:05:38.275Z,62.30
2018-04-28T11:10:41.684Z,62.30
2018-04-28T11:15:45.080Z,62.00
2018-04-28T11:20:48.857Z,61.20
2018-04-28T11:25:52.141Z,61.00
2018-04-28T11:30:57.190Z,59.80
2018-04-28T11:36:00.490Z,59.80
2018-04-28T11:41:03.739Z,59.80
2018-04-28T11:46:08.480Z,59.20
2018-04-28T11:51:11.841Z,58.00
2018-04-28T11:56:15.288Z,55.50
2018-04-28T12:01:19.006Z,53.70
2018-04-28T12:06:22.597Z,53.70
2018-04-28T12:11:26.269Z,51.50
2018-04-28T12:16:29.608Z,51.50
2018-04-28T12:21:33.026Z,50.60
2018-04-28T12:26:36.364Z,49.40
2018-04-28T12:31:39.844Z,49.20
2018-04-28T12:36:43.152Z,49.40
2018-04-28T12:41:46.766Z,50.20
2018-04-28T12:46:50.179Z,51.70
2018-04-28T12:51:53.692Z,54.40
2018-04-28T12:56:57.447Z,56.40
2018-04-28T13:02:01.528Z,56.40
2018-04-28T13:07:05.712Z,59.80
2018-04-28T13:12:09.064Z,57.50
2018-04-28T13:17:12.347Z,53.80
2018-04-28T13:22:15.587Z,50.30
2018-04-28T13:27:19.213Z,48.30
2018-04-28T13:32:22.937Z,48.50
2018-04-28T13:37:26.178Z,48.40
2018-04-28T13:42:29.536Z,48.60
2018-04-28T13:47:33.348Z,53.70
2018-04-28T13:52:36.856Z,53.70
2018-04-28T13:57:40.138Z,54.50
2018-04-28T14:02:43.492Z,55.30
2018-04-28T14:07:46.743Z,55.50
2018-04-28T14:12:50.086Z,53.00
2018-04-28T14:17:53.378Z,54.10
2018-04-28T14:22:56.712Z,56.00
2018-04-28T14:28:00.435Z,54.00
2018-04-28T14:33:04.651Z,56.00
2018-04-28T14:38:07.884Z,56.00
2018-04-28T14:43:11.370Z,57.20
2018-04-28T14:48:14.602Z,55.70
2018-04-28T14:53:17.820Z,56.60
2018-04-28T14:58:21.169Z,55.10
2018-04-28T15:03:24.389Z,54.20
2018-04-28T15:08:28.382Z,55.50
2018-04-28T15:13:32.137Z,54.00
2018-04-28T15:18:35.380Z,54.00
2018-04-28T15:23:38.600Z,53.00
2018-04-28T15:28:41.832Z,52.10
2018-04-28T15:33:45.342Z,53.40
2018-04-28T15:38:49.392Z,54.40
2018-04-28T15:43:52.715Z,53.50
2018-04-28T15:48:56.349Z,49.40
2018-04-28T15:53:59.690Z,49.40
2018-04-28T15:59:03.032Z,47.70
2018-04-28T16:04:06.749Z,48.90
2018-04-28T16:09:10.005Z,48.80
2018-04-28T16:14:13.497Z,48.80
2018-04-28T16:19:16.778Z,48.30
2018-04-28T16:24:20.394Z,46.60
2018-04-28T16:29:24.690Z,47.00
2018-04-28T16:34:28.049Z,47.00
2018-04-28T16:39:31.304Z,46.80
2018-04-28T16:44:34.525Z,47.00
2018-04-28T16:49:42.592Z,47.70
2018-04-28T16:54:45.863Z,48.60
2018-04-28T16:59:49.492Z,55.80
2018-04-28T17:04:53.195Z,58.00
2018-04-28T17:09:56.447Z,58.00
2018-04-28T17:14:59.715Z,59.80
2018-04-28T17:20:03.342Z,62.30
2018-04-28T17:25:06.966Z,63.10
2018-04-28T17:30:10.214Z,63.10
2018-04-28T17:35:13.452Z,63.20
2018-04-28T17:40:17.076Z,65.00
2018-04-28T17:45:20.692Z,65.10
2018-04-28T17:50:24.307Z,68.10
2018-04-28T17:55:27.931Z,70.70
2018-04-28T18:00:31.555Z,72.20
2018-04-28T18:05:34.831Z,72.20
2018-04-28T18:10:38.472Z,71.70
2018-04-28T18:15:41.691Z,71.70
2018-04-28T18:20:44.915Z,71.60
2018-04-28T18:25:48.145Z,71.30
2018-04-28T18:30:51.353Z,70.60
2018-04-28T18:35:54.587Z,70.40
2018-04-28T18:40:58.276Z,71.00
2018-04-28T18:46:01.495Z,71.00
2018-04-28T18:51:04.730Z,71.50
2018-04-28T18:56:07.947Z,72.10
2018-04-28T19:01:11.172Z,72.50
2018-04-28T19:06:14.392Z,73.00
2018-04-28T19:11:17.628Z,74.40
2018-04-28T19:16:20.872Z,75.10
2018-04-28T19:21:24.101Z,75.80
2018-04-28T19:26:27.752Z,76.50
2018-04-28T19:31:31.380Z,75.90
2018-04-28T19:36:35.013Z,76.10
2018-04-28T19:41:38.299Z,76.10
2018-04-28T19:46:41.918Z,76.60
2018-04-28T19:51:45.620Z,77.80
2018-04-28T19:56:48.845Z,77.80
2018-04-28T20:01:52.089Z,77.80
2018-04-28T20:06:55.326Z,78.40
2018-04-28T20:11:58.558Z,79.40
2018-04-28T20:17:01.788Z,79.70
2018-04-28T20:22:16.827Z,79.90
2018-04-28T20:27:20.065Z,80.30
2018-04-28T20:32:23.662Z,80.50
2018-04-28T20:37:27.281Z,80.60
2018-04-28T20:42:30.892Z,80.50
2018-04-28T20:47:34.518Z,80.20
2018-04-28T20:52:38.154Z,80.20
2018-04-28T20:57:41.396Z,80.20
2018-04-28T21:02:44.664Z,79.10
2018-04-28T21:07:47.894Z,79.80
2018-04-28T21:12:51.118Z,79.40
2018-04-28T21:17:54.343Z,80.10
2018-04-28T21:22:57.972Z,80.20
2018-04-28T21:28:01.781Z,79.30
2018-04-28T21:33:05.418Z,81.10
2018-04-28T21:38:08.636Z,81.10
2018-04-28T21:43:12.603Z,82.50
2018-04-28T21:48:15.931Z,83.40
2018-04-28T21:53:19.606Z,85.70
2018-04-28T21:58:22.797Z,85.70
2018-04-28T22:03:26.053Z,86.00
2018-04-28T22:08:29.287Z,86.30
2018-04-28T22:13:32.704Z,86.40
2018-04-28T22:18:35.996Z,86.50
2018-04-28T22:23:39.693Z,85.80
2018-04-28T22:28:42.920Z,85.80
2018-04-28T22:33:46.525Z,84.50
2018-04-28T22:38:50.142Z,85.20
2018-04-28T22:43:54.832Z,84.80
2018-04-28T22:48:58.049Z,84.80
2018-04-28T22:54:01.278Z,84.00
2018-04-28T22:59:04.496Z,82.90
2018-04-28T23:04:08.117Z,81.80
2018-04-28T23:09:12.127Z,82.00
2018-04-28T23:14:15.353Z,82.00
2018-04-28T23:19:18.984Z,83.20
2018-04-28T23:24:22.201Z,83.20
2018-04-28T23:29:25.430Z,83.80
2018-04-28T23:34:28.646Z,84.00
2018-04-28T23:39:31.956Z,84.30
2018-04-28T23:44:35.187Z,84.50
2018-04-28T23:49:38.405Z,84.70
2018-04-28T23:54:42.015Z,85.40
2018-04-28T23:59:45.635Z,85.60
